createdAt,value
2017-09-21T00:00:06.207Z,0
2017-09-21T00:01:05.861Z,0
2017-09-21T00:02:06.226Z,0
2017-09-21T00:03:05.829Z,0
2017-09-21T00:04:06.140Z,0
2017-09-21T00:05:05.891Z,0
2017-09-21T00:06:05.464Z,0
2017-09-21T00:07:05.450Z,0
2017-09-21T00:08:05.092Z,0
2017-09-21T00:09:05.811Z,0
2017-09-21T00:10:06.015Z,0
2017-09-21T00:11:05.749Z,0
2017-09-21T00:12:05.350Z,0
2017-09-21T00:13:04.996Z,0
2017-09-21T00:14:05.613Z,0
2017-09-21T00:15:05.682Z,0
2017-09-21T00:16:05.569Z,0
2017-09-21T00:17:05.350Z,0
2017-09-21T00:18:05.222Z,0
2017-09-21T00:19:05.840Z,0
2017-09-21T00:20:05.482Z,0
2017-09-21T00:21:05.248Z,0
2017-09-21T00:22:05.759Z,0
2017-09-21T00:23:05.439Z,0
2017-09-21T00:24:05.406Z,0
2017-09-21T00:25:05.709Z,0
2017-09-21T00:26:05.058Z,0
2017-09-21T00:27:05.431Z,0
2017-09-21T00:28:05.362Z,0
2017-09-21T00:29:05.020Z,0
2017-09-21T00:30:04.975Z,0
2017-09-21T00:31:05.288Z,0
2017-09-21T00:32:04.966Z,0
2017-09-21T00:33:05.249Z,0
2017-09-21T00:34:04.900Z,0
2017-09-21T00:35:04.899Z,0
2017-09-21T00:36:05.488Z,0
2017-09-21T00:37:05.212Z,0
2017-09-21T00:38:04.840Z,0
2017-09-21T00:39:04.819Z,0
2017-09-21T00:40:04.801Z,0
2017-09-21T00:41:04.149Z,0
2017-09-21T00:42:04.739Z,0
2017-09-21T00:43:05.098Z,0
2017-09-21T00:44:05.350Z,0
2017-09-21T00:45:04.999Z,0
2017-09-21T00:46:05.021Z,0
2017-09-21T00:47:04.957Z,0
2017-09-21T00:48:04.950Z,0
2017-09-21T00:49:04.926Z,0
2017-09-21T00:50:04.939Z,0
2017-09-21T00:51:05.189Z,0
2017-09-21T00:52:05.168Z,0
2017-09-21T00:53:05.159Z,0
2017-09-21T00:54:04.828Z,0
2017-09-21T00:55:05.107Z,0
2017-09-21T00:56:04.782Z,0
2017-09-21T00:57:04.769Z,0
2017-09-21T00:58:04.744Z,0
2017-09-21T00:59:04.740Z,0
2017-09-21T01:00:05.049Z,0
2017-09-21T01:01:05.033Z,0
2017-09-21T01:02:05.005Z,0
2017-09-21T01:03:04.654Z,0
2017-09-21T01:04:04.947Z,0
2017-09-21T01:05:04.940Z,0
2017-09-21T01:06:04.889Z,0
2017-09-21T01:07:04.867Z,0
2017-09-21T01:08:04.871Z,0
2017-09-21T01:09:04.850Z,0
2017-09-21T01:10:04.829Z,0
2017-09-21T01:11:04.549Z,0
2017-09-21T01:12:04.789Z,0
2017-09-21T01:13:04.760Z,0
2017-09-21T01:14:04.740Z,0
2017-09-21T01:15:03.909Z,0
2017-09-21T01:16:04.720Z,0
2017-09-21T01:17:04.389Z,0
2017-09-21T01:18:04.673Z,0
2017-09-21T01:19:04.369Z,0
2017-09-21T01:20:04.632Z,0
2017-09-21T01:21:04.343Z,0
2017-09-21T01:22:04.592Z,0
2017-09-21T01:23:03.981Z,0
2017-09-21T01:24:04.288Z,0
2017-09-21T01:25:04.330Z,0
2017-09-21T01:26:04.208Z,0
2017-09-21T01:27:03.560Z,0
2017-09-21T01:28:04.156Z,0
2017-09-21T01:29:04.132Z,0
2017-09-21T01:30:04.112Z,0
2017-09-21T01:31:04.224Z,0
2017-09-21T01:32:04.392Z,0
2017-09-21T01:33:03.790Z,0
2017-09-21T01:34:04.356Z,0
2017-09-21T01:35:04.343Z,0
2017-09-21T01:36:03.997Z,0
2017-09-21T01:37:03.989Z,0
2017-09-21T01:38:04.285Z,0
2017-09-21T01:39:04.243Z,0
2017-09-21T01:40:03.611Z,0
2017-09-21T01:41:04.019Z,0
2017-09-21T01:42:03.900Z,0
2017-09-21T01:43:03.858Z,0
2017-09-21T01:44:03.902Z,0
2017-09-21T01:45:03.501Z,0
2017-09-21T01:46:03.492Z,0
2017-09-21T01:47:03.775Z,0
2017-09-21T01:48:03.477Z,0
2017-09-21T01:49:04.071Z,0
2017-09-21T01:50:03.429Z,0
2017-09-21T01:51:03.416Z,0
2017-09-21T01:52:03.367Z,0
2017-09-21T01:53:03.682Z,0
2017-09-21T01:54:03.955Z,0
2017-09-21T01:55:03.932Z,0
2017-09-21T01:56:03.949Z,0
2017-09-21T01:57:03.694Z,0
2017-09-21T01:58:03.887Z,0
2017-09-21T01:59:02.935Z,0
2017-09-21T02:00:03.525Z,0
2017-09-21T02:01:03.510Z,0
2017-09-21T02:02:03.792Z,0
2017-09-21T02:03:03.172Z,0
2017-09-21T02:04:03.145Z,0
2017-09-21T02:05:02.806Z,0
2017-09-21T02:06:03.753Z,0
2017-09-21T02:07:03.710Z,0
2017-09-21T02:08:03.060Z,0
2017-09-21T02:09:03.661Z,0
2017-09-21T02:10:03.317Z,0
2017-09-21T02:11:02.998Z,0
2017-09-21T02:12:03.611Z,0
2017-09-21T02:13:03.282Z,0
2017-09-21T02:14:03.572Z,0
2017-09-21T02:15:03.226Z,0
2017-09-21T02:16:02.914Z,0
2017-09-21T02:17:02.568Z,0
2017-09-21T02:18:03.161Z,0
2017-09-21T02:19:03.445Z,0
2017-09-21T02:20:03.454Z,0
2017-09-21T02:21:02.486Z,0
2017-09-21T02:22:03.097Z,0
2017-09-21T02:23:02.770Z,0
2017-09-21T02:24:02.426Z,0
2017-09-21T02:25:02.722Z,0
2017-09-21T02:26:03.001Z,0
2017-09-21T02:27:03.002Z,0
2017-09-21T02:28:02.347Z,0
2017-09-21T02:29:02.383Z,0
2017-09-21T02:30:02.928Z,0
2017-09-21T02:31:02.920Z,0
2017-09-21T02:32:03.210Z,0
2017-09-21T02:33:02.242Z,0
2017-09-21T02:34:03.171Z,0
2017-09-21T02:35:02.526Z,0
2017-09-21T02:36:02.532Z,0
2017-09-21T02:37:03.147Z,0
2017-09-21T02:38:02.486Z,0
2017-09-21T02:39:02.750Z,0
2017-09-21T02:40:02.461Z,0
2017-09-21T02:41:03.044Z,0
2017-09-21T02:42:02.729Z,0
2017-09-21T02:43:02.680Z,0
2017-09-21T02:44:02.404Z,0
2017-09-21T02:45:02.321Z,0
2017-09-21T02:46:02.309Z,0
2017-09-21T02:47:02.285Z,0
2017-09-21T02:48:01.972Z,0
2017-09-21T02:49:02.882Z,0
2017-09-21T02:50:02.536Z,0
2017-09-21T02:51:02.831Z,0
2017-09-21T02:52:02.501Z,0
2017-09-21T02:53:02.481Z,0
2017-09-21T02:54:02.457Z,0
2017-09-21T02:55:02.471Z,0
2017-09-21T02:56:02.399Z,0
2017-09-21T02:57:02.419Z,0
2017-09-21T02:58:02.377Z,0
2017-09-21T02:59:01.738Z,0
2017-09-21T03:00:02.351Z,0
2017-09-21T03:01:02.334Z,0
2017-09-21T03:02:02.620Z,0
2017-09-21T03:03:02.291Z,0
2017-09-21T03:04:02.563Z,0
2017-09-21T03:05:02.558Z,0
2017-09-21T03:06:02.221Z,0
2017-09-21T03:07:02.522Z,0
2017-09-21T03:08:02.481Z,0
2017-09-21T03:09:02.476Z,0
2017-09-21T03:10:01.822Z,0
2017-09-21T03:11:02.433Z,0
2017-09-21T03:12:01.791Z,0
2017-09-21T03:13:02.409Z,0
2017-09-21T03:14:02.054Z,0
2017-09-21T03:15:02.382Z,0
2017-09-21T03:16:02.072Z,0
2017-09-21T03:17:02.010Z,0
2017-09-21T03:18:01.998Z,0
2017-09-21T03:19:01.972Z,0
2017-09-21T03:20:02.260Z,0
2017-09-21T03:21:01.615Z,0
2017-09-21T03:22:01.891Z,0
2017-09-21T03:23:02.202Z,0
2017-09-21T03:24:01.867Z,0
2017-09-21T03:25:01.855Z,0
2017-09-21T03:26:01.512Z,0
2017-09-21T03:27:01.800Z,0
2017-09-21T03:28:01.781Z,0
2017-09-21T03:29:01.771Z,0
2017-09-21T03:30:01.142Z,0
2017-09-21T03:31:01.430Z,0
2017-09-21T03:32:02.033Z,0
2017-09-21T03:33:02.003Z,0
2017-09-21T03:34:02.010Z,0
2017-09-21T03:35:01.978Z,0
2017-09-21T03:36:01.630Z,0
2017-09-21T03:37:01.980Z,0
2017-09-21T03:38:01.928Z,0
2017-09-21T03:39:00.940Z,0
2017-09-21T03:40:01.560Z,0
2017-09-21T03:41:01.211Z,0
2017-09-21T03:42:01.831Z,0
2017-09-21T03:43:01.792Z,0
2017-09-21T03:44:01.789Z,0
2017-09-21T03:45:01.768Z,0
2017-09-21T03:46:01.441Z,0
2017-09-21T03:47:01.102Z,0
2017-09-21T03:48:01.073Z,0
2017-09-21T03:49:01.364Z,0
2017-09-21T03:50:01.332Z,0
2017-09-21T03:51:01.340Z,0
2017-09-21T03:52:01.307Z,0
2017-09-21T03:53:01.297Z,0
2017-09-21T03:54:01.291Z,0
2017-09-21T03:55:01.259Z,0
2017-09-21T03:56:00.620Z,0
2017-09-21T03:57:01.232Z,0
2017-09-21T03:58:00.584Z,0
2017-09-21T03:59:01.270Z,0
2017-09-21T04:00:01.476Z,0
2017-09-21T04:01:00.828Z,0
2017-09-21T04:02:01.481Z,0
2017-09-21T04:03:01.084Z,0
2017-09-21T04:04:01.401Z,0
2017-09-21T04:05:00.742Z,0
2017-09-21T04:06:01.344Z,0
2017-09-21T04:07:00.700Z,0
2017-09-21T04:08:00.697Z,0
2017-09-21T04:09:00.992Z,0
2017-09-21T04:10:01.278Z,0
2017-09-21T04:11:00.318Z,0
2017-09-21T04:12:01.237Z,0
2017-09-21T04:13:00.579Z,0
2017-09-21T04:14:00.878Z,0
2017-09-21T04:15:01.180Z,0
2017-09-21T04:16:01.151Z,0
2017-09-21T04:17:00.499Z,0
2017-09-21T04:18:00.230Z,0
2017-09-21T04:19:00.529Z,0
2017-09-21T04:20:00.739Z,0
2017-09-21T04:21:01.048Z,0
2017-09-21T04:22:00.705Z,0
2017-09-21T04:23:00.673Z,0
2017-09-21T04:24:00.660Z,0
2017-09-21T04:25:00.353Z,0
2017-09-21T04:26:00.399Z,0
2017-09-21T04:27:00.599Z,0
2017-09-21T04:28:00.578Z,0
2017-09-21T04:29:00.578Z,0
2017-09-21T04:30:00.549Z,0
2017-09-21T04:31:00.898Z,0
2017-09-21T04:32:00.858Z,0
2017-09-21T04:32:59.920Z,0
2017-09-21T04:33:59.923Z,0
2017-09-21T04:34:59.841Z,0
2017-09-21T04:36:00.842Z,0
2017-09-21T04:37:00.438Z,0
2017-09-21T04:38:00.762Z,0
2017-09-21T04:39:00.254Z,0
2017-09-21T04:40:00.371Z,0
2017-09-21T04:41:00.033Z,0
2017-09-21T04:42:00.317Z,0
2017-09-21T04:43:00.288Z,0
2017-09-21T04:44:00.262Z,0
2017-09-21T04:44:59.939Z,0
2017-09-21T04:45:59.921Z,0
2017-09-21T04:47:00.268Z,0
2017-09-21T04:48:00.221Z,0
2017-09-21T04:48:59.890Z,0
2017-09-21T04:49:59.848Z,0
2017-09-21T04:51:00.126Z,0
2017-09-21T04:51:59.850Z,0
2017-09-21T04:53:00.489Z,0
2017-09-21T04:54:00.078Z,0
2017-09-21T04:55:00.348Z,0
2017-09-21T04:56:00.028Z,0
2017-09-21T04:57:00.027Z,0
2017-09-21T04:57:59.691Z,0
2017-09-21T04:58:59.988Z,0
2017-09-21T04:59:59.651Z,0
2017-09-21T05:00:59.960Z,0
2017-09-21T05:02:00.258Z,0
2017-09-21T05:02:59.892Z,0
2017-09-21T05:03:59.880Z,0
2017-09-21T05:04:59.869Z,0
2017-09-21T05:05:59.850Z,0
2017-09-21T05:06:59.531Z,0
2017-09-21T05:07:59.798Z,0
2017-09-21T05:09:00.148Z,0
2017-09-21T05:09:59.460Z,0
2017-09-21T05:10:59.442Z,0
2017-09-21T05:12:00.128Z,0
2017-09-21T05:13:00.019Z,0
2017-09-21T05:14:00.000Z,0
2017-09-21T05:14:59.990Z,0
2017-09-21T05:15:59.344Z,0
2017-09-21T05:16:59.649Z,0
2017-09-21T05:17:59.631Z,0
2017-09-21T05:18:59.299Z,0
2017-09-21T05:19:59.580Z,0
2017-09-21T05:20:59.891Z,0
2017-09-21T05:21:59.555Z,0
2017-09-21T05:22:59.510Z,0
2017-09-21T05:23:59.187Z,0
2017-09-21T05:24:59.472Z,5
2017-09-21T05:25:59.460Z,5
2017-09-21T05:26:59.440Z,5
2017-09-21T05:27:58.789Z,5
2017-09-21T05:28:59.715Z,5
2017-09-21T05:29:59.681Z,5
2017-09-21T05:30:59.345Z,5
2017-09-21T05:31:59.019Z,5
2017-09-21T05:32:59.335Z,5
2017-09-21T05:33:59.661Z,5
2017-09-21T05:34:59.583Z,5
2017-09-21T05:35:59.605Z,10
2017-09-21T05:36:59.537Z,10
2017-09-21T05:37:59.542Z,10
2017-09-21T05:38:59.190Z,10
2017-09-21T05:39:59.484Z,10
2017-09-21T05:40:59.456Z,10
2017-09-21T05:41:58.837Z,10
2017-09-21T05:42:59.438Z,10
2017-09-21T05:43:59.099Z,10
2017-09-21T05:44:59.438Z,10
2017-09-21T05:45:59.070Z,10
2017-09-21T05:46:59.449Z,15
2017-09-21T05:47:59.337Z,15
2017-09-21T05:48:58.699Z,15
2017-09-21T05:49:58.666Z,15
2017-09-21T05:50:58.642Z,15
2017-09-21T05:51:58.953Z,15
2017-09-21T05:52:58.920Z,20
2017-09-21T05:53:58.898Z,20
2017-09-21T05:54:59.223Z,20
2017-09-21T05:55:58.917Z,20
2017-09-21T05:56:58.898Z,20
2017-09-21T05:57:58.828Z,20
2017-09-21T05:58:58.581Z,20
2017-09-21T05:59:58.781Z,20
2017-09-21T06:00:59.068Z,20
2017-09-21T06:01:59.049Z,20
2017-09-21T06:02:58.406Z,20
2017-09-21T06:03:59.026Z,25
2017-09-21T06:04:58.671Z,25
2017-09-21T06:05:58.718Z,25
2017-09-21T06:06:58.647Z,25
2017-09-21T06:07:58.998Z,30
2017-09-21T06:08:58.908Z,30
2017-09-21T06:09:58.969Z,30
2017-09-21T06:10:58.550Z,30
2017-09-21T06:11:58.539Z,30
2017-09-21T06:12:58.207Z,35
2017-09-21T06:13:58.811Z,35
2017-09-21T06:14:58.193Z,35
2017-09-21T06:15:58.779Z,40
2017-09-21T06:16:57.820Z,40
2017-09-21T06:17:58.798Z,40
2017-09-21T06:18:58.088Z,45
2017-09-21T06:19:58.417Z,45
2017-09-21T06:20:58.368Z,45
2017-09-21T06:21:58.339Z,45
2017-09-21T06:22:58.328Z,50
2017-09-21T06:23:58.614Z,50
2017-09-21T06:24:58.308Z,55
2017-09-21T06:25:57.728Z,60
2017-09-21T06:26:57.920Z,65
2017-09-21T06:27:58.529Z,70
2017-09-21T06:28:58.530Z,75
2017-09-21T06:29:58.486Z,75
2017-09-21T06:30:57.858Z,85
2017-09-21T06:31:58.159Z,90
2017-09-21T06:32:57.816Z,90
2017-09-21T06:33:58.149Z,95
2017-09-21T06:34:57.765Z,95
2017-09-21T06:35:57.758Z,100
2017-09-21T06:36:57.728Z,105
2017-09-21T06:37:57.699Z,110
2017-09-21T06:38:57.376Z,115
2017-09-21T06:39:57.661Z,115
2017-09-21T06:40:57.647Z,125
2017-09-21T06:41:57.329Z,120
2017-09-21T06:42:57.918Z,130
2017-09-21T06:43:57.905Z,140
2017-09-21T06:44:57.568Z,175
2017-09-21T06:45:57.892Z,460
2017-09-21T06:46:57.571Z,490
2017-09-21T06:47:57.886Z,510
2017-09-21T06:48:57.499Z,510
2017-09-21T06:49:57.821Z,515
2017-09-21T06:50:57.771Z,535
2017-09-21T06:51:57.761Z,555
2017-09-21T06:52:58.082Z,570
2017-09-21T06:53:57.741Z,575
2017-09-21T06:54:57.682Z,585
2017-09-21T06:55:57.059Z,590
2017-09-21T06:56:57.643Z,580
2017-09-21T06:57:57.699Z,570
2017-09-21T06:58:57.639Z,610
2017-09-21T06:59:57.607Z,645
2017-09-21T07:00:57.598Z,680
2017-09-21T07:01:57.929Z,665
2017-09-21T07:02:57.865Z,650
2017-09-21T07:03:57.568Z,530
2017-09-21T07:04:57.830Z,265
2017-09-21T07:05:57.520Z,195
2017-09-21T07:06:57.531Z,200
2017-09-21T07:07:57.469Z,205
2017-09-21T07:08:57.490Z,205
2017-09-21T07:09:57.749Z,205
2017-09-21T07:10:57.409Z,205
2017-09-21T07:11:57.701Z,205
2017-09-21T07:12:57.428Z,210
2017-09-21T07:13:57.705Z,210
2017-09-21T07:14:57.759Z,215
2017-09-21T07:15:57.702Z,215
2017-09-21T07:16:57.079Z,220
2017-09-21T07:17:57.625Z,220
2017-09-21T07:18:57.672Z,225
2017-09-21T07:19:57.583Z,225
2017-09-21T07:20:57.593Z,230
2017-09-21T07:21:57.578Z,235
2017-09-21T07:22:57.541Z,235
2017-09-21T07:23:57.198Z,240
2017-09-21T07:24:57.203Z,245
2017-09-21T07:25:57.194Z,245
2017-09-21T07:26:57.488Z,245
2017-09-21T07:27:57.136Z,250
2017-09-21T07:28:57.450Z,250
2017-09-21T07:29:57.135Z,255
2017-09-21T07:30:57.159Z,260
2017-09-21T07:31:57.400Z,265
2017-09-21T07:32:57.418Z,270
2017-09-21T07:33:57.049Z,270
2017-09-21T07:34:57.361Z,270
2017-09-21T07:35:57.065Z,275
2017-09-21T07:36:56.728Z,280
2017-09-21T07:37:57.026Z,285
2017-09-21T07:38:56.992Z,290
2017-09-21T07:39:57.309Z,305
2017-09-21T07:40:56.679Z,500
2017-09-21T07:41:56.970Z,930
2017-09-21T07:42:56.973Z,1050
2017-09-21T07:43:56.637Z,1090
2017-09-21T07:44:57.266Z,1160
2017-09-21T07:45:56.936Z,1180
2017-09-21T07:46:56.938Z,1140
2017-09-21T07:47:57.216Z,1130
2017-09-21T07:48:56.919Z,1145
2017-09-21T07:49:56.932Z,1175
2017-09-21T07:50:56.916Z,1190
2017-09-21T07:51:56.941Z,1165
2017-09-21T07:52:57.206Z,1105
2017-09-21T07:53:57.182Z,1075
2017-09-21T07:54:56.917Z,1090
2017-09-21T07:55:57.182Z,1110
2017-09-21T07:56:57.198Z,1110
2017-09-21T07:57:57.330Z,1105
2017-09-21T07:58:57.179Z,1070
2017-09-21T07:59:57.200Z,1085
2017-09-21T08:00:56.837Z,1160
2017-09-21T08:01:56.900Z,1220
2017-09-21T08:02:57.131Z,1230
2017-09-21T08:03:57.135Z,1230
2017-09-21T08:04:56.870Z,1180
2017-09-21T08:05:57.110Z,1175
2017-09-21T08:06:57.142Z,1205
2017-09-21T08:07:56.520Z,1230
2017-09-21T08:08:57.101Z,1185
2017-09-21T08:09:57.141Z,1180
2017-09-21T08:10:56.799Z,1215
2017-09-21T08:11:57.073Z,1250
2017-09-21T08:12:57.083Z,1245
2017-09-21T08:13:56.873Z,1215
2017-09-21T08:14:56.744Z,1210
2017-09-21T08:15:57.037Z,1195
2017-09-21T08:16:56.104Z,1210
2017-09-21T08:17:56.411Z,1220
2017-09-21T08:18:57.012Z,1190
2017-09-21T08:19:57.003Z,1170
2017-09-21T08:20:56.441Z,1155
2017-09-21T08:21:56.840Z,1130
2017-09-21T08:22:56.071Z,1130
2017-09-21T08:23:56.382Z,1155
2017-09-21T08:24:56.766Z,1180
2017-09-21T08:25:56.421Z,1180
2017-09-21T08:26:56.678Z,1195
2017-09-21T08:27:56.385Z,1210
2017-09-21T08:28:56.650Z,1235
2017-09-21T08:29:56.344Z,1230
2017-09-21T08:30:56.011Z,1230
2017-09-21T08:31:56.010Z,1265
2017-09-21T08:32:57.015Z,1280
2017-09-21T08:33:56.650Z,1285
2017-09-21T08:34:56.372Z,1285
2017-09-21T08:35:56.609Z,1275
2017-09-21T08:36:56.969Z,1285
2017-09-21T08:37:56.310Z,1340
2017-09-21T08:38:56.345Z,1315
2017-09-21T08:39:56.611Z,1270
2017-09-21T08:40:56.910Z,1310
2017-09-21T08:41:56.940Z,1335
2017-09-21T08:42:56.900Z,1360
2017-09-21T08:43:56.633Z,1400
2017-09-21T08:44:56.281Z,1280
2017-09-21T08:45:55.950Z,1075
2017-09-21T08:46:56.281Z,1055
2017-09-21T08:47:56.580Z,1240
2017-09-21T08:48:56.325Z,1385
2017-09-21T08:49:56.570Z,1375
2017-09-21T08:50:56.889Z,1390
2017-09-21T08:51:56.890Z,1430
2017-09-21T08:52:56.871Z,1370
2017-09-21T08:53:56.870Z,1325
2017-09-21T08:54:56.561Z,1410
2017-09-21T08:55:56.858Z,1430
2017-09-21T08:56:55.907Z,1395
2017-09-21T08:57:56.542Z,1350
2017-09-21T08:58:56.609Z,1330
2017-09-21T08:59:56.660Z,1305
2017-09-21T09:00:56.527Z,1315
2017-09-21T09:01:56.583Z,1350
2017-09-21T09:02:56.530Z,1330
2017-09-21T09:03:56.833Z,1300
2017-09-21T09:04:56.831Z,1240
2017-09-21T09:05:56.650Z,1195
2017-09-21T09:06:56.894Z,1180
2017-09-21T09:07:56.503Z,1225
2017-09-21T09:08:56.488Z,1295
2017-09-21T09:09:56.859Z,1315
2017-09-21T09:10:56.516Z,1375
2017-09-21T09:11:56.475Z,1375
2017-09-21T09:12:56.501Z,1290
2017-09-21T09:13:56.494Z,1235
2017-09-21T09:14:56.815Z,1210
2017-09-21T09:15:56.485Z,1365
2017-09-21T09:16:56.487Z,1575
2017-09-21T09:17:56.564Z,1320
2017-09-21T09:18:56.803Z,1220
2017-09-21T09:19:56.532Z,1275
2017-09-21T09:20:56.463Z,1235
2017-09-21T09:21:56.772Z,1195
2017-09-21T09:22:56.770Z,1185
2017-09-21T09:23:56.462Z,1240
2017-09-21T09:24:56.748Z,1225
2017-09-21T09:25:56.431Z,1205
2017-09-21T09:26:56.187Z,1300
2017-09-21T09:27:56.464Z,1325
2017-09-21T09:28:56.149Z,1230
2017-09-21T09:29:55.492Z,1225
2017-09-21T09:30:56.431Z,1185
2017-09-21T09:31:56.140Z,1190
2017-09-21T09:32:56.129Z,1190
2017-09-21T09:33:56.741Z,1165
2017-09-21T09:34:56.082Z,1210
2017-09-21T09:35:56.402Z,1210
2017-09-21T09:36:56.481Z,1195
2017-09-21T09:37:56.164Z,1230
2017-09-21T09:38:56.071Z,1185
2017-09-21T09:39:56.413Z,1175
2017-09-21T09:40:56.770Z,1200
2017-09-21T09:41:56.383Z,1230
2017-09-21T09:42:56.729Z,1190
2017-09-21T09:43:56.390Z,1130
2017-09-21T09:44:56.374Z,685
2017-09-21T09:45:56.385Z,1155
2017-09-21T09:46:56.366Z,1180
2017-09-21T09:47:56.370Z,1110
2017-09-21T09:48:56.370Z,940
2017-09-21T09:49:56.743Z,570
2017-09-21T09:50:56.380Z,685
2017-09-21T09:51:56.341Z,1115
2017-09-21T09:52:56.322Z,1100
2017-09-21T09:53:55.996Z,1125
2017-09-21T09:54:56.632Z,960
2017-09-21T09:55:55.671Z,1035
2017-09-21T09:56:56.602Z,1035
2017-09-21T09:57:56.602Z,995
2017-09-21T09:58:56.302Z,1070
2017-09-21T09:59:56.586Z,1040
2017-09-21T10:00:56.300Z,980
2017-09-21T10:01:56.590Z,1080
2017-09-21T10:02:56.610Z,1115
2017-09-21T10:03:56.553Z,750
2017-09-21T10:04:56.566Z,320
2017-09-21T10:05:56.570Z,985
2017-09-21T10:06:56.546Z,1060
2017-09-21T10:07:55.925Z,1015
2017-09-21T10:08:56.540Z,1015
2017-09-21T10:09:56.531Z,1000
2017-09-21T10:10:55.901Z,920
2017-09-21T10:11:56.570Z,965
2017-09-21T10:12:55.562Z,960
2017-09-21T10:13:56.190Z,965
2017-09-21T10:14:56.513Z,940
2017-09-21T10:15:55.863Z,935
2017-09-21T10:16:56.159Z,975
2017-09-21T10:17:56.451Z,1005
2017-09-21T10:18:56.159Z,955
2017-09-21T10:19:56.137Z,940
2017-09-21T10:20:56.533Z,925
2017-09-21T10:21:55.496Z,885
2017-09-21T10:22:56.553Z,845
2017-09-21T10:23:56.428Z,840
2017-09-21T10:24:56.127Z,830
2017-09-21T10:25:56.111Z,825
2017-09-21T10:26:56.428Z,855
2017-09-21T10:27:56.411Z,860
2017-09-21T10:28:56.082Z,845
2017-09-21T10:29:56.094Z,820
2017-09-21T10:30:56.070Z,775
2017-09-21T10:31:56.386Z,695
2017-09-21T10:32:56.392Z,565
2017-09-21T10:33:56.386Z,465
2017-09-21T10:34:56.029Z,415
2017-09-21T10:35:56.361Z,410
2017-09-21T10:36:56.357Z,405
2017-09-21T10:37:55.701Z,405
2017-09-21T10:38:55.669Z,400
2017-09-21T10:39:55.980Z,400
2017-09-21T10:40:55.995Z,405
2017-09-21T10:41:55.657Z,405
2017-09-21T10:42:55.981Z,410
2017-09-21T10:43:56.280Z,400
2017-09-21T10:44:56.258Z,390
2017-09-21T10:45:55.656Z,395
2017-09-21T10:46:55.624Z,385
2017-09-21T10:47:55.969Z,395
2017-09-21T10:48:55.909Z,395
2017-09-21T10:49:55.929Z,270
2017-09-21T10:50:55.910Z,285
2017-09-21T10:51:56.202Z,380
2017-09-21T10:52:56.177Z,390
2017-09-21T10:53:56.418Z,375
2017-09-21T10:54:56.250Z,315
2017-09-21T10:55:56.320Z,345
2017-09-21T10:56:56.160Z,255
2017-09-21T10:57:56.002Z,255
2017-09-21T10:58:55.527Z,265
2017-09-21T10:59:56.220Z,275
2017-09-21T11:00:55.819Z,330
2017-09-21T11:01:55.500Z,305
2017-09-21T11:02:56.110Z,225
2017-09-21T11:03:56.108Z,220
2017-09-21T11:04:55.155Z,230
2017-09-21T11:05:56.180Z,235
2017-09-21T11:06:56.111Z,250
2017-09-21T11:07:55.771Z,315
2017-09-21T11:08:55.428Z,325
2017-09-21T11:09:56.061Z,305
2017-09-21T11:10:55.402Z,240
2017-09-21T11:11:56.121Z,280
2017-09-21T11:12:55.396Z,320
2017-09-21T11:13:55.702Z,230
2017-09-21T11:14:55.694Z,230
2017-09-21T11:15:56.000Z,230
2017-09-21T11:16:55.384Z,235
2017-09-21T11:17:55.981Z,235
2017-09-21T11:18:55.331Z,315
2017-09-21T11:19:55.348Z,330
2017-09-21T11:20:55.968Z,330
2017-09-21T11:21:55.310Z,330
2017-09-21T11:22:55.599Z,330
2017-09-21T11:23:55.618Z,325
2017-09-21T11:24:55.588Z,325
2017-09-21T11:25:55.273Z,325
2017-09-21T11:26:55.403Z,320
2017-09-21T11:27:55.261Z,315
2017-09-21T11:28:55.536Z,315
2017-09-21T11:29:55.838Z,285
2017-09-21T11:30:55.820Z,275
2017-09-21T11:31:55.538Z,305
2017-09-21T11:32:55.193Z,300
2017-09-21T11:33:55.841Z,300
2017-09-21T11:34:55.500Z,310
2017-09-21T11:35:55.180Z,325
2017-09-21T11:36:54.866Z,320
2017-09-21T11:37:55.778Z,325
2017-09-21T11:38:55.164Z,320
2017-09-21T11:39:55.150Z,320
2017-09-21T11:40:55.419Z,320
2017-09-21T11:41:55.171Z,320
2017-09-21T11:42:55.150Z,300
2017-09-21T11:43:55.732Z,295
2017-09-21T11:44:55.731Z,225
2017-09-21T11:45:55.529Z,220
2017-09-21T11:46:55.769Z,250
2017-09-21T11:47:55.399Z,285
2017-09-21T11:48:55.397Z,290
2017-09-21T11:49:55.682Z,295
2017-09-21T11:50:55.355Z,300
2017-09-21T11:51:55.416Z,265
2017-09-21T11:52:55.326Z,300
2017-09-21T11:53:55.675Z,295
2017-09-21T11:54:55.018Z,295
2017-09-21T11:55:55.643Z,290
2017-09-21T11:56:55.281Z,290
2017-09-21T11:57:54.972Z,290
2017-09-21T11:58:55.259Z,290
2017-09-21T11:59:54.943Z,290
2017-09-21T12:00:55.232Z,290
2017-09-21T12:01:55.226Z,290
2017-09-21T12:02:55.226Z,285
2017-09-21T12:03:55.584Z,280
2017-09-21T12:04:55.210Z,280
2017-09-21T12:05:54.899Z,285
2017-09-21T12:06:55.191Z,285
2017-09-21T12:07:54.879Z,285
2017-09-21T12:08:55.185Z,285
2017-09-21T12:09:54.921Z,230
2017-09-21T12:10:55.460Z,290
2017-09-21T12:11:55.297Z,290
2017-09-21T12:12:55.141Z,285
2017-09-21T12:13:55.437Z,190
2017-09-21T12:14:55.132Z,190
2017-09-21T12:15:55.408Z,190
2017-09-21T12:16:55.419Z,185
2017-09-21T12:17:55.417Z,195
2017-09-21T12:18:55.068Z,280
2017-09-21T12:19:55.358Z,300
2017-09-21T12:20:55.359Z,235
2017-09-21T12:21:55.359Z,235
2017-09-21T12:22:55.351Z,190
2017-09-21T12:23:55.043Z,190
2017-09-21T12:24:55.351Z,200
2017-09-21T12:25:55.332Z,275
2017-09-21T12:26:55.333Z,230
2017-09-21T12:27:55.282Z,270
2017-09-21T12:28:55.282Z,280
2017-09-21T12:29:54.646Z,280
2017-09-21T12:30:54.945Z,275
2017-09-21T12:31:55.262Z,275
2017-09-21T12:32:55.359Z,270
2017-09-21T12:33:54.921Z,260
2017-09-21T12:34:55.082Z,270
2017-09-21T12:35:54.889Z,275
2017-09-21T12:36:55.241Z,275
2017-09-21T12:37:55.191Z,275
2017-09-21T12:38:55.261Z,280
2017-09-21T12:39:54.879Z,285
2017-09-21T12:40:54.550Z,285
2017-09-21T12:41:55.227Z,280
2017-09-21T12:42:54.823Z,275
2017-09-21T12:43:55.217Z,275
2017-09-21T12:44:55.154Z,275
2017-09-21T12:45:55.162Z,280
2017-09-21T12:46:54.827Z,280
2017-09-21T12:47:54.769Z,280
2017-09-21T12:48:55.118Z,285
2017-09-21T12:49:55.111Z,295
2017-09-21T12:50:54.751Z,275
2017-09-21T12:51:54.730Z,275
2017-09-21T12:52:54.731Z,270
2017-09-21T12:53:54.766Z,265
2017-09-21T12:54:55.022Z,260
2017-09-21T12:55:54.685Z,250
2017-09-21T12:56:54.690Z,245
2017-09-21T12:57:54.685Z,165
2017-09-21T12:58:54.969Z,165
2017-09-21T12:59:54.679Z,195
2017-09-21T13:00:54.660Z,230
2017-09-21T13:01:54.629Z,235
2017-09-21T13:02:54.628Z,195
2017-09-21T13:03:54.620Z,180
2017-09-21T13:04:54.598Z,220
2017-09-21T13:05:53.961Z,230
2017-09-21T13:06:54.340Z,230
2017-09-21T13:07:54.880Z,235
2017-09-21T13:08:54.871Z,235
2017-09-21T13:09:54.899Z,240
2017-09-21T13:10:54.568Z,240
2017-09-21T13:11:54.555Z,230
2017-09-21T13:12:53.880Z,205
2017-09-21T13:13:54.200Z,155
2017-09-21T13:14:54.197Z,175
2017-09-21T13:15:54.818Z,220
2017-09-21T13:16:54.819Z,185
2017-09-21T13:17:54.779Z,145
2017-09-21T13:18:54.470Z,145
2017-09-21T13:19:54.770Z,140
2017-09-21T13:20:54.761Z,135
2017-09-21T13:21:54.116Z,135
2017-09-21T13:22:54.718Z,135
2017-09-21T13:23:54.720Z,135
2017-09-21T13:24:54.479Z,135
2017-09-21T13:25:54.713Z,140
2017-09-21T13:26:54.702Z,140
2017-09-21T13:27:54.418Z,145
2017-09-21T13:28:54.685Z,150
2017-09-21T13:29:54.360Z,170
2017-09-21T13:30:54.342Z,245
2017-09-21T13:31:54.625Z,250
2017-09-21T13:32:53.990Z,250
2017-09-21T13:33:53.971Z,250
2017-09-21T13:34:54.677Z,245
2017-09-21T13:35:53.974Z,245
2017-09-21T13:36:54.264Z,240
2017-09-21T13:37:54.265Z,240
2017-09-21T13:38:54.022Z,230
2017-09-21T13:39:54.240Z,225
2017-09-21T13:40:54.261Z,225
2017-09-21T13:41:54.224Z,220
2017-09-21T13:42:54.291Z,220
2017-09-21T13:43:54.179Z,220
2017-09-21T13:44:53.874Z,220
2017-09-21T13:45:54.160Z,215
2017-09-21T13:46:54.171Z,210
2017-09-21T13:47:53.512Z,200
2017-09-21T13:48:53.811Z,195
2017-09-21T13:49:53.814Z,205
2017-09-21T13:50:53.854Z,210
2017-09-21T13:51:54.094Z,210
2017-09-21T13:52:54.071Z,210
2017-09-21T13:53:54.140Z,220
2017-09-21T13:54:53.743Z,215
2017-09-21T13:55:54.367Z,220
2017-09-21T13:56:54.360Z,220
2017-09-21T13:57:54.041Z,220
2017-09-21T13:58:54.041Z,230
2017-09-21T13:59:54.368Z,225
2017-09-21T14:00:54.302Z,230
2017-09-21T14:01:53.999Z,225
2017-09-21T14:02:54.274Z,220
2017-09-21T14:03:53.664Z,220
2017-09-21T14:04:53.635Z,210
2017-09-21T14:05:54.271Z,210